createdAt,value
2023-05-05T00:01:54.831Z,0.1
2023-05-05T00:03:54.749Z,0.1
2023-05-05T00:05:58.019Z,0.1
2023-05-05T00:07:54.830Z,0.1
2023-05-05T00:10:01.137Z,0.1
2023-05-05T00:11:54.951Z,0.1
2023-05-05T00:13:54.824Z,0.1
2023-05-05T00:15:54.751Z,0.1
2023-05-05T00:18:01.592Z,0.1
2023-05-05T00:19:54.738Z,0.1
2023-05-05T00:21:54.731Z,0.1
2023-05-05T00:23:54.833Z,0.1
2023-05-05T00:25:54.749Z,0.1
2023-05-05T00:27:54.773Z,0.1
2023-05-05T00:29:54.764Z,0.1
2023-05-05T00:31:58.247Z,0.1
2023-05-05T00:33:54.808Z,0.1
2023-05-05T00:35:54.779Z,0.1
2023-05-05T00:37:54.733Z,0.1
2023-05-05T00:39:54.835Z,0.1
2023-05-05T00:41:57.972Z,0.1
2023-05-05T00:43:54.745Z,0.1
2023-05-05T00:45:57.926Z,0.1
2023-05-05T00:47:54.925Z,0.1
2023-05-05T00:51:54.713Z,0.1
2023-05-05T00:53:57.949Z,0.1
2023-05-05T00:55:54.798Z,0.1
2023-05-05T00:57:54.753Z,0.1
2023-05-05T00:59:57.930Z,0.1
2023-05-05T01:01:54.810Z,0.1
2023-05-05T01:03:54.890Z,0.1
2023-05-05T01:05:54.874Z,0.1
2023-05-05T01:07:54.780Z,0.1
2023-05-05T01:10:04.405Z,0.1
2023-05-05T01:11:54.795Z,0.1
2023-05-05T01:13:57.986Z,0.1
2023-05-05T01:15:54.864Z,0.1
2023-05-05T01:17:54.857Z,0.1
2023-05-05T01:19:54.799Z,0.1
2023-05-05T01:21:57.971Z,0
2023-05-05T01:23:58.031Z,0.1
2023-05-05T01:25:54.769Z,0
2023-05-05T01:27:57.990Z,0
2023-05-05T01:30:01.291Z,0
2023-05-05T01:31:54.829Z,0
2023-05-05T01:33:54.778Z,0
2023-05-05T01:36:01.639Z,0
2023-05-05T01:37:54.765Z,1
2023-05-05T01:39:57.896Z,0
2023-05-05T01:41:54.774Z,0
2023-05-05T01:43:55.224Z,0
2023-05-05T01:46:01.558Z,0
2023-05-05T01:47:57.956Z,1
2023-05-05T01:49:54.732Z,1
2023-05-05T01:52:01.668Z,1
2023-05-05T01:53:54.747Z,1
2023-05-05T01:55:54.761Z,1
2023-05-05T01:57:54.784Z,1
2023-05-05T01:59:57.925Z,1
2023-05-05T02:01:58.243Z,1
2023-05-05T02:03:57.906Z,1
2023-05-05T02:07:54.918Z,1
2023-05-05T02:09:54.780Z,1
2023-05-05T02:11:54.785Z,1
2023-05-05T02:13:58.035Z,1
2023-05-05T02:15:58.177Z,1
2023-05-05T02:17:57.942Z,1
2023-05-05T02:20:01.889Z,1
2023-05-05T02:21:54.777Z,1
2023-05-05T02:23:54.851Z,0
2023-05-05T02:25:54.962Z,1
2023-05-05T02:27:57.948Z,1
2023-05-05T02:29:54.748Z,1
2023-05-05T02:31:54.893Z,1
2023-05-05T02:33:54.779Z,1
2023-05-05T02:35:54.748Z,1
2023-05-05T02:37:55.126Z,1
2023-05-05T02:39:54.839Z,1
2023-05-05T02:41:57.943Z,1
2023-05-05T02:43:54.761Z,1
2023-05-05T02:45:54.808Z,1
2023-05-05T02:47:54.977Z,1
2023-05-05T02:50:01.498Z,1
2023-05-05T02:51:58.020Z,1
2023-05-05T02:53:54.849Z,1
2023-05-05T02:55:54.961Z,0
2023-05-05T02:58:01.306Z,0
2023-05-05T02:59:54.773Z,0
2023-05-05T03:01:54.796Z,0
2023-05-05T03:03:58.006Z,0
2023-05-05T03:06:01.135Z,0.1
2023-05-05T03:07:54.791Z,0.1
2023-05-05T03:09:54.773Z,0.2
2023-05-05T03:11:55.111Z,0.2
2023-05-05T03:13:58.006Z,0.3
2023-05-05T03:15:54.843Z,0.4
2023-05-05T03:17:54.915Z,0.6
2023-05-05T03:19:54.822Z,0.8
2023-05-05T03:21:54.848Z,1.2
2023-05-05T03:23:54.773Z,1.6
2023-05-05T03:25:54.845Z,2.3
2023-05-05T03:27:58.048Z,3.3
2023-05-05T03:29:54.811Z,4.5
2023-05-05T03:31:54.769Z,6.4
2023-05-05T03:33:54.820Z,8.6
2023-05-05T03:35:54.874Z,12.2
2023-05-05T03:39:54.784Z,22.2
2023-05-05T03:41:54.786Z,28.5
2023-05-05T03:43:54.867Z,36.6
2023-05-05T03:47:54.811Z,60.3
2023-05-05T03:49:54.831Z,73.7
2023-05-05T03:51:54.941Z,90
2023-05-05T03:54:01.641Z,109.9
2023-05-05T03:55:54.832Z,127.7
2023-05-05T03:58:01.638Z,148.4
2023-05-05T03:59:54.838Z,181.3
2023-05-05T04:01:54.911Z,200.3
2023-05-05T04:03:54.809Z,244.7
2023-05-05T04:05:54.811Z,284.3
2023-05-05T04:07:58.028Z,314.2
2023-05-05T04:09:57.997Z,365
2023-05-05T04:11:54.777Z,403.4
2023-05-05T04:13:57.931Z,468.7
2023-05-05T04:15:54.899Z,492.7
2023-05-05T04:17:54.875Z,492.7
2023-05-05T04:19:54.798Z,492.7
2023-05-05T04:21:54.824Z,518
2023-05-05T04:23:55.224Z,518
2023-05-05T04:25:57.989Z,572.5
2023-05-05T04:27:57.940Z,632.7
2023-05-05T04:29:54.821Z,665.1
2023-05-05T04:31:57.966Z,699.2
2023-05-05T04:34:01.582Z,772.8
2023-05-05T04:35:57.939Z,812.4
2023-05-05T04:37:57.919Z,897.8
2023-05-05T04:39:54.777Z,897.8
2023-05-05T04:41:54.838Z,943.9
2023-05-05T04:43:54.778Z,943.9
2023-05-05T04:46:01.620Z,1043.1
2023-05-05T04:47:57.992Z,1096.6
2023-05-05T04:49:57.968Z,1096.6
2023-05-05T04:51:54.774Z,1152.9
2023-05-05T04:53:54.813Z,1212
2023-05-05T04:55:54.878Z,1274.1
2023-05-05T04:57:57.933Z,1339.4
2023-05-05T04:59:54.956Z,1408.1
2023-05-05T05:01:54.840Z,1480.3
2023-05-05T05:03:55.011Z,1480.3
2023-05-05T05:05:58.019Z,1480.3
2023-05-05T05:08:01.988Z,1480.3
2023-05-05T05:09:54.782Z,1636
2023-05-05T05:12:01.601Z,1719.9
2023-05-05T05:13:57.937Z,1808
2023-05-05T05:15:54.822Z,1808
2023-05-05T05:17:54.818Z,1900.7
2023-05-05T05:19:54.830Z,1900.7
2023-05-05T05:21:57.938Z,1998.2
2023-05-05T05:23:54.808Z,1998.2
2023-05-05T05:26:01.104Z,2100.6
2023-05-05T05:28:06.034Z,2208.3
2023-05-05T05:31:57.957Z,2208.3
2023-05-05T05:34:01.575Z,2321.6
2023-05-05T05:36:01.518Z,2321.6
2023-05-05T05:37:54.788Z,2321.6
2023-05-05T05:39:54.804Z,2321.6
2023-05-05T05:41:54.831Z,2440.6
2023-05-05T05:43:54.871Z,2440.6
2023-05-05T05:45:57.974Z,2440.6
2023-05-05T05:47:54.849Z,2565.7
2023-05-05T05:49:54.794Z,2440.6
2023-05-05T05:51:54.825Z,2565.7
2023-05-05T05:53:55.883Z,2565.7
2023-05-05T05:55:54.776Z,2697.3
2023-05-05T05:57:54.890Z,2697.3
2023-05-05T05:59:54.877Z,2697.3
2023-05-05T06:01:54.898Z,2835.6
2023-05-05T06:03:57.993Z,2835.6
2023-05-05T06:05:57.951Z,2835.6
2023-05-05T06:07:54.857Z,2835.6
2023-05-05T06:09:54.780Z,2835.6
2023-05-05T06:11:54.788Z,2835.6
2023-05-05T06:13:54.834Z,2981
2023-05-05T06:16:01.613Z,2981
2023-05-05T06:17:54.868Z,2981
2023-05-05T06:19:54.833Z,3294.5
2023-05-05T06:21:58.052Z,3827.6
2023-05-05T06:23:58.046Z,4914.8
2023-05-05T06:25:57.940Z,5166.8
2023-05-05T06:27:54.798Z,5431.7
2023-05-05T06:29:57.981Z,5710.1
2023-05-05T06:31:54.817Z,5710.1
2023-05-05T06:33:54.784Z,6310.7
2023-05-05T06:35:57.972Z,6310.7
2023-05-05T06:37:54.786Z,6634.2
2023-05-05T06:39:54.836Z,6974.4
2023-05-05T06:41:54.823Z,7332
2023-05-05T06:43:54.819Z,7707.9
2023-05-05T06:46:01.588Z,7707.9
2023-05-05T06:47:54.834Z,5166.8
2023-05-05T06:49:54.821Z,3827.6
2023-05-05T06:51:54.794Z,3827.6
2023-05-05T06:53:57.980Z,3827.6
2023-05-05T06:55:54.827Z,4023.9
2023-05-05T06:57:54.812Z,4023.9
2023-05-05T06:59:54.825Z,4023.9
2023-05-05T07:01:54.822Z,4230.2
2023-05-05T07:03:54.852Z,4230.2
2023-05-05T07:05:54.873Z,4230.2
2023-05-05T07:07:54.940Z,4230.2
2023-05-05T07:09:57.988Z,4447.1
2023-05-05T07:11:54.793Z,4447.1
2023-05-05T07:13:58.119Z,4447.1
2023-05-05T07:15:54.807Z,4675.1
2023-05-05T07:17:54.816Z,4914.8
2023-05-05T07:19:54.803Z,4914.8
2023-05-05T07:22:01.567Z,5166.8
2023-05-05T07:23:54.783Z,5166.8
2023-05-05T07:25:57.907Z,5166.8
2023-05-05T07:28:01.280Z,5431.7
2023-05-05T07:29:57.929Z,6002.9
2023-05-05T07:31:57.990Z,6002.9
2023-05-05T07:33:54.810Z,6310.7
2023-05-05T07:36:01.708Z,6310.7
2023-05-05T07:37:54.807Z,6310.7
2023-05-05T07:39:54.832Z,6310.7
2023-05-05T07:41:54.793Z,6310.7
2023-05-05T07:43:55.196Z,6002.9
2023-05-05T07:45:57.958Z,4914.8
2023-05-05T07:47:54.824Z,4914.8
2023-05-05T07:49:54.814Z,6002.9
2023-05-05T07:51:54.968Z,6002.9
2023-05-05T07:53:54.792Z,6310.7
2023-05-05T07:55:54.825Z,6634.2
2023-05-05T07:57:54.854Z,6974.4
2023-05-05T07:59:58.007Z,6974.4
2023-05-05T08:03:54.804Z,6974.4
2023-05-05T08:05:54.798Z,6974.4
2023-05-05T08:07:54.853Z,6974.4
2023-05-05T08:09:57.927Z,6974.4
2023-05-05T08:11:57.956Z,7332
2023-05-05T08:13:57.958Z,6974.4
2023-05-05T08:15:54.933Z,7707.9
2023-05-05T08:17:54.806Z,8103.1
2023-05-05T08:19:57.961Z,8103.1
2023-05-05T08:22:01.449Z,8955.3
2023-05-05T08:23:54.803Z,8955.3
2023-05-05T08:25:54.791Z,8103.1
2023-05-05T08:28:01.741Z,8518.5
2023-05-05T08:29:54.789Z,8103.1
2023-05-05T08:31:54.829Z,8103.1
2023-05-05T08:33:54.784Z,8103.1
2023-05-05T08:35:54.836Z,8955.3
2023-05-05T08:37:56.014Z,8955.3
2023-05-05T08:39:54.846Z,8955.3
2023-05-05T08:41:54.934Z,8955.3
2023-05-05T08:43:54.830Z,9414.4
2023-05-05T08:45:54.843Z,9414.4
2023-05-05T08:47:54.852Z,10404.6
2023-05-05T08:49:54.827Z,10938
2023-05-05T08:51:54.878Z,10938
2023-05-05T08:53:54.840Z,11498.8
2023-05-05T08:55:54.977Z,10938
2023-05-05T08:57:54.820Z,11498.8
2023-05-05T08:59:54.811Z,11498.8
2023-05-05T09:02:01.195Z,11498.8
2023-05-05T09:03:54.822Z,11498.8
2023-05-05T09:05:54.798Z,11498.8
2023-05-05T09:07:54.787Z,11498.8
2023-05-05T09:09:54.852Z,11498.8
2023-05-05T09:11:54.788Z,11498.8
2023-05-05T09:13:54.827Z,11498.8
2023-05-05T09:15:58.186Z,10938
2023-05-05T09:17:54.782Z,10404.6
2023-05-05T09:20:01.600Z,10404.6
2023-05-05T09:21:54.821Z,9897.1
2023-05-05T09:23:55.100Z,9897.1
2023-05-05T09:26:01.818Z,9897.1
2023-05-05T09:27:58.035Z,9897.1
2023-05-05T09:29:54.805Z,9897.1
2023-05-05T09:33:54.765Z,9897.1
2023-05-05T09:35:54.924Z,9897.1
2023-05-05T09:38:01.683Z,9897.1
2023-05-05T09:40:01.829Z,9897.1
2023-05-05T09:41:54.767Z,9897.1
2023-05-05T09:43:54.844Z,10404.6
2023-05-05T09:45:54.807Z,10404.6
2023-05-05T09:47:59.510Z,10404.6
2023-05-05T09:49:54.856Z,10938
2023-05-05T09:51:55.023Z,10938
2023-05-05T09:53:54.824Z,10938
2023-05-05T09:55:57.997Z,10938
2023-05-05T09:57:54.782Z,10938
2023-05-05T09:59:58.001Z,10404.6
2023-05-05T10:01:57.971Z,10938
2023-05-05T10:04:01.568Z,10938
2023-05-05T10:05:54.771Z,10938
2023-05-05T10:07:54.827Z,10938
2023-05-05T10:09:54.847Z,10404.6
2023-05-05T10:13:54.766Z,10404.6
2023-05-05T10:15:54.883Z,10404.6
2023-05-05T10:18:05.693Z,10404.6
2023-05-05T10:19:54.794Z,10404.6
2023-05-05T10:21:54.799Z,10938
2023-05-05T10:23:54.893Z,10938
2023-05-05T10:25:57.968Z,10938
2023-05-05T10:27:54.815Z,11498.8
2023-05-05T10:30:01.530Z,11498.8
2023-05-05T10:31:54.829Z,12088.4
2023-05-05T10:33:58.124Z,12088.4
2023-05-05T10:35:54.788Z,12088.4
2023-05-05T10:37:54.797Z,12708.2
2023-05-05T10:39:54.802Z,12708.2
2023-05-05T10:41:57.934Z,12708.2
2023-05-05T10:43:54.801Z,12088.4
2023-05-05T10:45:54.889Z,12088.4
2023-05-05T10:48:01.711Z,11498.8
2023-05-05T10:49:54.789Z,12708.2
2023-05-05T10:52:01.089Z,12088.4
2023-05-05T10:53:54.793Z,12088.4
2023-05-05T10:55:54.844Z,12708.2
2023-05-05T10:57:54.807Z,12088.4
2023-05-05T10:59:57.964Z,12708.2
2023-05-05T11:01:57.958Z,12708.2
2023-05-05T11:03:54.967Z,10938
2023-05-05T11:05:54.806Z,12708.2
2023-05-05T11:07:54.805Z,12708.2
2023-05-05T11:09:54.835Z,12708.2
2023-05-05T11:11:54.889Z,12708.2
2023-05-05T11:13:54.793Z,12708.2
2023-05-05T11:16:01.619Z,12708.2
2023-05-05T11:17:54.826Z,12088.4
2023-05-05T11:19:58.049Z,12088.4
2023-05-05T11:21:54.820Z,11498.8
2023-05-05T11:23:57.974Z,12708.2
2023-05-05T11:25:57.904Z,13359.7
2023-05-05T11:27:54.887Z,13359.7
2023-05-05T11:29:54.818Z,13359.7
2023-05-05T11:31:57.952Z,13359.7
2023-05-05T11:33:54.774Z,13359.7
2023-05-05T11:35:54.893Z,12088.4
2023-05-05T11:37:54.834Z,10938
2023-05-05T11:39:54.788Z,12088.4
2023-05-05T11:41:54.830Z,12088.4
2023-05-05T11:43:54.861Z,10938
2023-05-05T11:45:54.817Z,12708.2
2023-05-05T11:47:58.026Z,11498.8
2023-05-05T11:49:54.775Z,10404.6
2023-05-05T11:51:58.030Z,10404.6
2023-05-05T11:53:55.077Z,12088.4
2023-05-05T11:56:01.053Z,12088.4
2023-05-05T11:59:54.970Z,12088.4
2023-05-05T12:01:57.993Z,12088.4
2023-05-05T12:03:54.998Z,11498.8
2023-05-05T12:05:57.992Z,11498.8
2023-05-05T12:07:57.897Z,11498.8
2023-05-05T12:09:54.791Z,11498.8
2023-05-05T12:13:57.995Z,12088.4
2023-05-05T12:15:54.837Z,12088.4
2023-05-05T12:17:54.877Z,12088.4
2023-05-05T12:19:54.837Z,12088.4
2023-05-05T12:23:58.081Z,12088.4
2023-05-05T12:25:57.974Z,12708.2
2023-05-05T12:27:57.942Z,12088.4
2023-05-05T12:29:58.013Z,12088.4
2023-05-05T12:31:54.835Z,12088.4
2023-05-05T12:33:54.795Z,12088.4
2023-05-05T12:35:54.842Z,12088.4
2023-05-05T12:37:54.829Z,12088.4
2023-05-05T12:39:54.943Z,11498.8
2023-05-05T12:41:54.850Z,11498.8
2023-05-05T12:43:54.841Z,11498.8
2023-05-05T12:45:58.018Z,11498.8
2023-05-05T12:47:58.137Z,11498.8
2023-05-05T12:49:54.799Z,11498.8
2023-05-05T12:51:54.833Z,12088.4
2023-05-05T12:53:58.011Z,12088.4
2023-05-05T12:55:54.812Z,12088.4
2023-05-05T12:57:54.793Z,11498.8
2023-05-05T13:00:02.056Z,11498.8
2023-05-05T13:01:58.017Z,11498.8
2023-05-05T13:03:54.800Z,10938
2023-05-05T13:05:54.831Z,10938
2023-05-05T13:07:54.808Z,10938
2023-05-05T13:09:54.814Z,10938
2023-05-05T13:11:58.003Z,10938
2023-05-05T13:13:57.954Z,10404.6
2023-05-05T13:16:01.653Z,10938
2023-05-05T13:17:54.956Z,10938
2023-05-05T13:19:54.866Z,10938
2023-05-05T13:21:54.834Z,10938
2023-05-05T13:23:57.356Z,10938
2023-05-05T13:25:54.808Z,10404.6
2023-05-05T13:27:57.997Z,10404.6
2023-05-05T13:30:01.532Z,10404.6
2023-05-05T13:31:59.110Z,10404.6
2023-05-05T13:33:57.962Z,10404.6
2023-05-05T13:35:58.000Z,9897.1
2023-05-05T13:37:54.788Z,9414.4
2023-05-05T13:39:54.804Z,8955.3
2023-05-05T13:41:54.846Z,8518.5
2023-05-05T13:43:54.838Z,8518.5
2023-05-05T13:45:55.934Z,8518.5
2023-05-05T13:48:01.774Z,8103.1
2023-05-05T13:50:01.525Z,8103.1
2023-05-05T13:51:57.925Z,8518.5
2023-05-05T13:53:54.827Z,8103.1
2023-05-05T13:55:57.999Z,8103.1
2023-05-05T13:58:01.611Z,8103.1
2023-05-05T13:59:54.901Z,7707.9
2023-05-05T14:01:57.963Z,7707.9
2023-05-05T14:03:56.977Z,7707.9
2023-05-05T14:05:54.807Z,7707.9
2023-05-05T14:07:54.833Z,7332
2023-05-05T14:09:58.004Z,7332
2023-05-05T14:11:54.834Z,7332
2023-05-05T14:13:54.801Z,7332
2023-05-05T14:15:54.851Z,7332
2023-05-05T14:19:54.796Z,6974.4
2023-05-05T14:21:54.802Z,6634.2
2023-05-05T14:23:54.873Z,6310.7
2023-05-05T14:25:54.798Z,6310.7
2023-05-05T14:27:54.818Z,6002.9
2023-05-05T14:29:58.067Z,5710.1
2023-05-05T14:33:57.938Z,5431.7
2023-05-05T14:35:54.824Z,5166.8
2023-05-05T14:37:54.814Z,5166.8
2023-05-05T14:39:54.814Z,4914.8
2023-05-05T14:41:54.816Z,4914.8
2023-05-05T14:44:01.676Z,5166.8
2023-05-05T14:45:57.978Z,5431.7
2023-05-05T14:47:57.995Z,5710.1
2023-05-05T14:49:54.817Z,6310.7
2023-05-05T14:51:56.148Z,6634.2
2023-05-05T14:53:54.858Z,6974.4
2023-05-05T14:55:54.852Z,6974.4
2023-05-05T14:57:57.954Z,7332
2023-05-05T14:59:54.880Z,7332
2023-05-05T15:01:54.877Z,6974.4
2023-05-05T15:04:01.759Z,6634.2
2023-05-05T15:05:54.836Z,6310.7
2023-05-05T15:07:57.947Z,6310.7
2023-05-05T15:09:54.833Z,6310.7
2023-05-05T15:12:01.637Z,6634.2
2023-05-05T15:13:54.864Z,6974.4
2023-05-05T15:15:54.860Z,7332
2023-05-05T15:17:54.856Z,7332
2023-05-05T15:19:58.010Z,7332
2023-05-05T15:21:54.822Z,7332
2023-05-05T15:23:54.853Z,8103.1
2023-05-05T15:25:54.798Z,7707.9
2023-05-05T15:27:54.817Z,7332
2023-05-05T15:29:54.860Z,6634.2
2023-05-05T15:31:54.838Z,6002.9
2023-05-05T15:33:57.964Z,6002.9
2023-05-05T15:35:54.839Z,5431.7
2023-05-05T15:37:54.797Z,4914.8
2023-05-05T15:39:58.112Z,4914.8
2023-05-05T15:41:54.863Z,4914.8
2023-05-05T15:43:54.841Z,4675.1
2023-05-05T15:45:54.812Z,4447.1
2023-05-05T15:47:58.013Z,4023.9
2023-05-05T15:49:54.839Z,3827.6
2023-05-05T15:52:29.528Z,3463.4
2023-05-05T15:53:54.816Z,2981
2023-05-05T15:55:54.835Z,2697.3
2023-05-05T15:57:57.960Z,2440.6
2023-05-05T15:59:54.906Z,2321.6
2023-05-05T16:01:54.821Z,2208.3
2023-05-05T16:03:54.831Z,2100.6
2023-05-05T16:05:54.879Z,2100.6
2023-05-05T16:07:54.831Z,1900.7
2023-05-05T16:09:57.996Z,1808
2023-05-05T16:11:54.856Z,1719.9
2023-05-05T16:13:54.798Z,1636
2023-05-05T16:15:57.967Z,1480.3
2023-05-05T16:17:54.857Z,1408.1
2023-05-05T16:19:57.953Z,1274.1
2023-05-05T16:21:54.815Z,1152.9
2023-05-05T16:23:54.913Z,1096.6
2023-05-05T16:26:01.620Z,943.9
2023-05-05T16:27:54.798Z,854.1
2023-05-05T16:29:54.890Z,699.2
2023-05-05T16:31:54.961Z,632.7
2023-05-05T16:33:57.999Z,572.5
2023-05-05T16:35:54.840Z,544.6
2023-05-05T16:37:54.866Z,518
2023-05-05T16:40:01.900Z,468.7
2023-05-05T16:41:54.788Z,445.9
2023-05-05T16:44:01.803Z,403.4
2023-05-05T16:45:54.862Z,383.8
2023-05-05T16:48:01.656Z,330.3
2023-05-05T16:50:01.800Z,298.9
2023-05-05T16:51:57.939Z,257.2
2023-05-05T16:53:54.815Z,232.8
2023-05-05T16:55:54.848Z,210.6
2023-05-05T16:57:54.804Z,190.6
2023-05-05T16:59:58.026Z,181.3
2023-05-05T17:01:54.838Z,172.4
2023-05-05T17:05:54.844Z,164
2023-05-05T17:07:57.994Z,156
2023-05-05T17:09:54.825Z,141.2
2023-05-05T17:11:57.972Z,134.3
2023-05-05T17:13:54.856Z,127.7
2023-05-05T17:15:54.847Z,121.5
2023-05-05T17:17:54.845Z,127.7
2023-05-05T17:21:54.822Z,172.4
2023-05-05T17:23:54.821Z,172.4
2023-05-05T17:25:54.861Z,172.4
2023-05-05T17:27:54.888Z,164
2023-05-05T17:29:54.841Z,156
2023-05-05T17:31:54.904Z,141.2
2023-05-05T17:33:54.829Z,127.7
2023-05-05T17:35:55.054Z,104.6
2023-05-05T17:37:54.822Z,94.6
2023-05-05T17:39:54.851Z,94.6
2023-05-05T17:42:01.798Z,94.6
2023-05-05T17:43:54.824Z,99.5
2023-05-05T17:45:54.872Z,104.6
2023-05-05T17:47:55.094Z,104.6
2023-05-05T17:49:54.965Z,109.9
2023-05-05T17:51:54.910Z,109.9
2023-05-05T17:53:54.910Z,115.6
2023-05-05T17:55:54.871Z,115.6
2023-05-05T17:57:54.865Z,115.6
2023-05-05T17:59:54.864Z,109.9
2023-05-05T18:01:54.871Z,94.6
2023-05-05T18:03:54.932Z,81.5
2023-05-05T18:05:54.834Z,63.4
2023-05-05T18:07:54.856Z,49.4
2023-05-05T18:09:54.894Z,38.5
2023-05-05T18:11:55.034Z,30
2023-05-05T18:13:54.881Z,22.2
2023-05-05T18:15:54.907Z,16.4
2023-05-05T18:17:54.851Z,11.6
2023-05-05T18:19:54.882Z,8.6
2023-05-05T18:21:54.868Z,7
2023-05-05T18:24:04.775Z,5.5
2023-05-05T18:25:57.991Z,2.6
2023-05-05T18:27:57.972Z,0.7
2023-05-05T18:29:57.995Z,0.9
2023-05-05T18:32:01.871Z,1.8
2023-05-05T18:33:54.844Z,2
2023-05-05T18:38:01.204Z,0.9
2023-05-05T18:39:54.852Z,0.7
2023-05-05T18:42:01.724Z,0.6
2023-05-05T18:43:57.989Z,0.4
2023-05-05T18:45:58.066Z,0.3
2023-05-05T18:47:58.134Z,0.3
2023-05-05T18:49:54.831Z,0.2
2023-05-05T18:52:01.784Z,0.1
2023-05-05T18:53:58.014Z,0.1
2023-05-05T18:56:01.739Z,0
2023-05-05T19:00:01.931Z,0
2023-05-05T19:01:54.816Z,0
2023-05-05T19:03:58.012Z,0
2023-05-05T19:05:58.056Z,1
2023-05-05T19:07:54.904Z,1
2023-05-05T19:11:54.983Z,1
2023-05-05T19:14:01.279Z,1
2023-05-05T19:15:58.087Z,1
2023-05-05T19:17:54.897Z,1
2023-05-05T19:19:58.092Z,1
2023-05-05T19:21:54.849Z,1
2023-05-05T19:23:54.867Z,1
2023-05-05T19:25:54.873Z,1
2023-05-05T19:29:54.881Z,1
2023-05-05T19:32:01.715Z,1
2023-05-05T19:33:54.850Z,1
2023-05-05T19:35:54.842Z,1
2023-05-05T19:38:01.885Z,1
2023-05-05T19:39:54.839Z,0.1
2023-05-05T19:41:57.977Z,0.1
2023-05-05T19:43:54.883Z,0.1
2023-05-05T19:45:54.866Z,0.1
2023-05-05T19:47:54.849Z,1
2023-05-05T19:49:54.873Z,1
2023-05-05T19:51:54.850Z,1
2023-05-05T19:53:54.824Z,1
2023-05-05T19:55:54.821Z,1
2023-05-05T19:57:57.959Z,1
2023-05-05T19:59:54.842Z,1
2023-05-05T20:01:54.935Z,1
2023-05-05T20:04:01.628Z,1
2023-05-05T20:05:54.869Z,1
2023-05-05T20:08:01.578Z,1
2023-05-05T20:09:54.837Z,1
2023-05-05T20:11:54.932Z,1
2023-05-05T20:13:54.815Z,1
2023-05-05T20:15:54.928Z,1
2023-05-05T20:17:54.944Z,1
2023-05-05T20:19:54.877Z,1
2023-05-05T20:21:54.870Z,1
2023-05-05T20:23:57.984Z,1
2023-05-05T20:25:54.868Z,1
2023-05-05T20:27:54.842Z,1
2023-05-05T20:29:54.865Z,1
2023-05-05T20:31:58.118Z,1
2023-05-05T20:33:54.880Z,1
2023-05-05T20:35:54.854Z,1
2023-05-05T20:37:54.899Z,1
2023-05-05T20:39:54.861Z,1
2023-05-05T20:41:54.878Z,1
2023-05-05T20:43:54.922Z,1
2023-05-05T20:47:54.853Z,1
2023-05-05T20:49:54.923Z,1
2023-05-05T20:51:54.876Z,1
2023-05-05T20:53:57.992Z,1
2023-05-05T20:55:54.880Z,1
2023-05-05T20:57:54.857Z,1
2023-05-05T20:59:58.004Z,1
2023-05-05T21:01:58.052Z,1
2023-05-05T21:03:54.834Z,1
2023-05-05T21:05:57.971Z,1
2023-05-05T21:07:59.950Z,1
2023-05-05T21:09:57.980Z,1
2023-05-05T21:11:54.832Z,1
2023-05-05T21:14:01.755Z,0.1
2023-05-05T21:15:58.038Z,0.1
2023-05-05T21:18:01.616Z,0.1
2023-05-05T21:20:02.134Z,0.1
2023-05-05T21:21:58.013Z,0.1
2023-05-05T21:23:58.030Z,0.1
2023-05-05T21:26:01.642Z,0.1
2023-05-05T21:27:58.039Z,1
2023-05-05T21:29:54.843Z,1
2023-05-05T21:31:54.878Z,1
2023-05-05T21:33:54.877Z,1
2023-05-05T21:35:54.859Z,1
2023-05-05T21:38:01.600Z,0
2023-05-05T21:39:54.845Z,0
2023-05-05T21:41:54.840Z,0
2023-05-05T21:43:54.858Z,0
2023-05-05T21:45:54.909Z,0
2023-05-05T21:47:54.863Z,0
2023-05-05T21:49:54.889Z,0
2023-05-05T21:52:01.779Z,0
2023-05-05T21:55:54.883Z,0.1
2023-05-05T21:57:54.839Z,0.1
2023-05-05T21:59:54.851Z,0.1
2023-05-05T22:01:55.017Z,0
2023-05-05T22:03:55.026Z,0
2023-05-05T22:06:01.008Z,0
2023-05-05T22:07:54.880Z,0.1
2023-05-05T22:09:54.880Z,0.1
2023-05-05T22:11:54.847Z,0.1
2023-05-05T22:13:58.138Z,0.1
2023-05-05T22:15:58.081Z,0.1
2023-05-05T22:17:54.871Z,0
2023-05-05T22:19:57.968Z,0
2023-05-05T22:21:58.073Z,0
2023-05-05T22:23:54.856Z,0
2023-05-05T22:25:58.001Z,0
2023-05-05T22:28:01.781Z,0.1
2023-05-05T22:29:54.874Z,0.1
2023-05-05T22:31:54.885Z,0.1
2023-05-05T22:33:54.862Z,0
2023-05-05T22:35:58.064Z,0
2023-05-05T22:37:52.993Z,0
2023-05-05T22:39:54.892Z,0
2023-05-05T22:42:01.711Z,0
2023-05-05T22:43:54.873Z,0
2023-05-05T22:45:54.844Z,0
2023-05-05T22:47:58.024Z,0.1
2023-05-05T22:49:54.884Z,0.1
2023-05-05T22:51:54.857Z,0
2023-05-05T22:53:54.848Z,0
2023-05-05T22:55:54.864Z,0
2023-05-05T22:57:54.871Z,1
2023-05-05T22:59:54.865Z,1
2023-05-05T23:01:54.908Z,1
2023-05-05T23:04:01.690Z,1
2023-05-05T23:05:58.022Z,1
2023-05-05T23:07:54.881Z,1
2023-05-05T23:09:54.848Z,1
2023-05-05T23:11:54.837Z,0
2023-05-05T23:14:01.654Z,1
2023-05-05T23:15:58.004Z,1
2023-05-05T23:17:54.877Z,1
2023-05-05T23:20:02.033Z,1
2023-05-05T23:21:54.878Z,1
2023-05-05T23:23:54.878Z,1
2023-05-05T23:25:54.884Z,1
2023-05-05T23:27:58.100Z,1
2023-05-05T23:29:54.826Z,0
2023-05-05T23:31:54.888Z,0
2023-05-05T23:33:54.864Z,0
2023-05-05T23:35:54.865Z,0
2023-05-05T23:38:01.692Z,0
2023-05-05T23:39:54.867Z,1
2023-05-05T23:41:54.838Z,1
2023-05-05T23:43:54.909Z,1
2023-05-05T23:45:58.017Z,1
2023-05-05T23:47:54.835Z,1
2023-05-05T23:49:54.879Z,1
2023-05-05T23:53:54.859Z,1
2023-05-05T23:55:54.875Z,1
2023-05-05T23:57:54.871Z,1
2023-05-05T23:59:54.878Z,1
